sensor_id;sensor_type;location;lat;lon;timestamp;temperature;humidity
6210;DHT22;3138;52.550;13.148;2022-09-27T00:01:11;12.00;99.90
6210;DHT22;3138;52.550;13.148;2022-09-27T00:03:39;12.10;99.90
6210;DHT22;3138;52.550;13.148;2022-09-27T00:06:07;12.00;99.90
6210;DHT22;3138;52.550;13.148;2022-09-27T00:08:35;12.10;99.90
6210;DHT22;3138;52.550;13.148;2022-09-27T00:11:03;12.10;99.90
6210;DHT22;3138;52.550;13.148;2022-09-27T00:13:31;12.00;99.90
6210;DHT22;3138;52.550;13.148;2022-09-27T00:16:01;12.10;99.90
6210;DHT22;3138;52.550;13.148;2022-09-27T00:18:29;12.10;99.90
6210;DHT22;3138;52.550;13.148;2022-09-27T00:21:02;12.00;99.90
6210;DHT22;3138;52.550;13.148;2022-09-27T00:23:29;12.10;99.90
6210;DHT22;3138;52.550;13.148;2022-09-27T00:25:56;12.10;99.90
6210;DHT22;3138;52.550;13.148;2022-09-27T00:28:24;12.10;99.90
6210;DHT22;3138;52.550;13.148;2022-09-27T00:30:51;12.00;99.90
6210;DHT22;3138;52.550;13.148;2022-09-27T00:33:19;12.10;99.90
6210;DHT22;3138;52.550;13.148;2022-09-27T00:35:46;12.20;99.90
6210;DHT22;3138;52.550;13.148;2022-09-27T00:38:13;12.10;99.90
6210;DHT22;3138;52.550;13.148;2022-09-27T00:40:41;12.10;99.90
6210;DHT22;3138;52.550;13.148;2022-09-27T00:43:15;12.10;99.90
6210;DHT22;3138;52.550;13.148;2022-09-27T00:45:45;12.10;99.90
6210;DHT22;3138;52.550;13.148;2022-09-27T00:48:15;12.10;99.90
6210;DHT22;3138;52.550;13.148;2022-09-27T00:50:48;12.10;99.90
6210;DHT22;3138;52.550;13.148;2022-09-27T00:53:18;12.10;99.90
6210;DHT22;3138;52.550;13.148;2022-09-27T00:55:49;12.10;99.90
6210;DHT22;3138;52.550;13.148;2022-09-27T00:58:21;12.10;99.90
6210;DHT22;3138;52.550;13.148;2022-09-27T01:00:53;12.10;99.90
6210;DHT22;3138;52.550;13.148;2022-09-27T01:03:26;12.10;99.90
6210;DHT22;3138;52.550;13.148;2022-09-27T01:05:56;12.10;99.90
6210;DHT22;3138;52.550;13.148;2022-09-27T01:08:24;12.10;99.90
6210;DHT22;3138;52.550;13.148;2022-09-27T01:10:58;12.10;99.90
6210;DHT22;3138;52.550;13.148;2022-09-27T01:13:35;12.10;99.90
6210;DHT22;3138;52.550;13.148;2022-09-27T01:16:10;12.00;99.90
6210;DHT22;3138;52.550;13.148;2022-09-27T01:18:46;12.00;99.90
6210;DHT22;3138;52.550;13.148;2022-09-27T01:21:40;12.00;99.90
6210;DHT22;3138;52.550;13.148;2022-09-27T01:27:36;12.00;99.90
6210;DHT22;3138;52.550;13.148;2022-09-27T01:30:17;12.00;99.90
6210;DHT22;3138;52.550;13.148;2022-09-27T01:32:49;11.90;99.90
6210;DHT22;3138;52.550;13.148;2022-09-27T01:35:21;12.00;99.90
6210;DHT22;3138;52.550;13.148;2022-09-27T01:37:57;12.00;99.90
6210;DHT22;3138;52.550;13.148;2022-09-27T01:40:32;12.00;99.90
6210;DHT22;3138;52.550;13.148;2022-09-27T01:43:07;12.00;99.90
6210;DHT22;3138;52.550;13.148;2022-09-27T01:45:39;12.00;99.90
6210;DHT22;3138;52.550;13.148;2022-09-27T01:48:10;12.00;99.90
6210;DHT22;3138;52.550;13.148;2022-09-27T01:50:40;12.00;99.90
6210;DHT22;3138;52.550;13.148;2022-09-27T01:53:13;12.10;99.90
6210;DHT22;3138;52.550;13.148;2022-09-27T01:55:41;12.00;99.90
6210;DHT22;3138;52.550;13.148;2022-09-27T01:58:12;12.10;99.90
6210;DHT22;3138;52.550;13.148;2022-09-27T02:00:44;12.10;99.90
6210;DHT22;3138;52.550;13.148;2022-09-27T02:03:14;12.10;99.90
6210;DHT22;3138;52.550;13.148;2022-09-27T02:05:44;12.10;99.90
6210;DHT22;3138;52.550;13.148;2022-09-27T02:08:16;12.10;99.90
6210;DHT22;3138;52.550;13.148;2022-09-27T02:10:44;12.10;99.90
6210;DHT22;3138;52.550;13.148;2022-09-27T02:13:17;12.10;99.90
6210;DHT22;3138;52.550;13.148;2022-09-27T02:15:51;12.20;99.90
6210;DHT22;3138;52.550;13.148;2022-09-27T02:18:27;12.10;99.90
6210;DHT22;3138;52.550;13.148;2022-09-27T02:20:59;12.00;99.90
6210;DHT22;3138;52.550;13.148;2022-09-27T02:23:32;12.10;99.90
6210;DHT22;3138;52.550;13.148;2022-09-27T02:26:09;12.00;99.90
6210;DHT22;3138;52.550;13.148;2022-09-27T02:28:39;12.10;99.90
6210;DHT22;3138;52.550;13.148;2022-09-27T02:31:09;12.10;99.90
6210;DHT22;3138;52.550;13.148;2022-09-27T02:33:39;12.10;99.90
6210;DHT22;3138;52.550;13.148;2022-09-27T02:36:06;12.10;99.90
6210;DHT22;3138;52.550;13.148;2022-09-27T02:38:34;12.10;99.90
6210;DHT22;3138;52.550;13.148;2022-09-27T02:41:01;12.10;99.90
6210;DHT22;3138;52.550;13.148;2022-09-27T02:43:30;12.10;99.90
6210;DHT22;3138;52.550;13.148;2022-09-27T02:46:13;12.10;99.90
6210;DHT22;3138;52.550;13.148;2022-09-27T02:48:49;12.00;99.90
6210;DHT22;3138;52.550;13.148;2022-09-27T02:51:35;12.00;99.90
6210;DHT22;3138;52.550;13.148;2022-09-27T02:54:11;12.00;99.90
6210;DHT22;3138;52.550;13.148;2022-09-27T02:56:49;12.00;99.90
6210;DHT22;3138;52.550;13.148;2022-09-27T02:59:28;11.90;99.90
6210;DHT22;3138;52.550;13.148;2022-09-27T03:02:05;11.90;99.90
6210;DHT22;3138;52.550;13.148;2022-09-27T03:04:38;11.90;99.90
6210;DHT22;3138;52.550;13.148;2022-09-27T03:07:06;11.90;99.90
6210;DHT22;3138;52.550;13.148;2022-09-27T03:09:41;11.90;99.90
6210;DHT22;3138;52.550;13.148;2022-09-27T03:12:08;11.80;99.90
6210;DHT22;3138;52.550;13.148;2022-09-27T03:14:35;11.80;99.90
6210;DHT22;3138;52.550;13.148;2022-09-27T03:17:03;11.70;99.90
6210;DHT22;3138;52.550;13.148;2022-09-27T03:19:30;11.70;99.90
6210;DHT22;3138;52.550;13.148;2022-09-27T03:21:57;11.70;99.90
6210;DHT22;3138;52.550;13.148;2022-09-27T03:24:23;11.70;99.90
6210;DHT22;3138;52.550;13.148;2022-09-27T03:26:50;11.70;99.90
6210;DHT22;3138;52.550;13.148;2022-09-27T03:29:17;11.70;99.90
6210;DHT22;3138;52.550;13.148;2022-09-27T03:31:44;11.60;99.90
6210;DHT22;3138;52.550;13.148;2022-09-27T03:34:12;11.60;99.90
6210;DHT22;3138;52.550;13.148;2022-09-27T03:36:38;11.60;99.90
6210;DHT22;3138;52.550;13.148;2022-09-27T03:39:05;11.70;99.90
6210;DHT22;3138;52.550;13.148;2022-09-27T03:41:32;11.70;99.90
6210;DHT22;3138;52.550;13.148;2022-09-27T03:43:59;11.60;99.90
6210;DHT22;3138;52.550;13.148;2022-09-27T03:46:26;11.60;99.90
6210;DHT22;3138;52.550;13.148;2022-09-27T03:48:53;11.60;99.90
6210;DHT22;3138;52.550;13.148;2022-09-27T03:51:22;11.60;99.90
6210;DHT22;3138;52.550;13.148;2022-09-27T03:53:49;11.60;99.90
6210;DHT22;3138;52.550;13.148;2022-09-27T03:56:16;11.60;99.90
6210;DHT22;3138;52.550;13.148;2022-09-27T03:58:42;11.60;99.90
6210;DHT22;3138;52.550;13.148;2022-09-27T04:01:10;11.50;99.90
6210;DHT22;3138;52.550;13.148;2022-09-27T04:03:36;11.50;99.90
6210;DHT22;3138;52.550;13.148;2022-09-27T04:06:04;11.50;99.90
6210;DHT22;3138;52.550;13.148;2022-09-27T04:08:32;11.40;99.90
6210;DHT22;3138;52.550;13.148;2022-09-27T04:10:59;11.40;99.90
6210;DHT22;3138;52.550;13.148;2022-09-27T04:13:26;11.40;99.90
6210;DHT22;3138;52.550;13.148;2022-09-27T04:15:52;11.40;99.90
6210;DHT22;3138;52.550;13.148;2022-09-27T04:18:19;11.40;99.90
6210;DHT22;3138;52.550;13.148;2022-09-27T04:20:46;11.40;99.90
6210;DHT22;3138;52.550;13.148;2022-09-27T04:23:13;11.40;99.90
6210;DHT22;3138;52.550;13.148;2022-09-27T04:25:41;11.40;99.90
6210;DHT22;3138;52.550;13.148;2022-09-27T04:28:08;11.40;99.90
6210;DHT22;3138;52.550;13.148;2022-09-27T04:30:35;11.40;99.90
6210;DHT22;3138;52.550;13.148;2022-09-27T04:33:01;11.40;99.90
6210;DHT22;3138;52.550;13.148;2022-09-27T04:35:28;11.30;99.90
6210;DHT22;3138;52.550;13.148;2022-09-27T04:38:12;11.40;99.90
6210;DHT22;3138;52.550;13.148;2022-09-27T04:40:41;11.40;99.90
6210;DHT22;3138;52.550;13.148;2022-09-27T04:43:07;11.40;99.90
6210;DHT22;3138;52.550;13.148;2022-09-27T04:45:35;11.30;99.90
6210;DHT22;3138;52.550;13.148;2022-09-27T04:48:01;11.30;99.90
6210;DHT22;3138;52.550;13.148;2022-09-27T04:50:28;11.20;99.90
6210;DHT22;3138;52.550;13.148;2022-09-27T04:52:57;11.20;99.90
6210;DHT22;3138;52.550;13.148;2022-09-27T04:55:23;11.20;99.90
6210;DHT22;3138;52.550;13.148;2022-09-27T04:57:52;11.20;99.90
6210;DHT22;3138;52.550;13.148;2022-09-27T05:00:19;11.20;99.90
6210;DHT22;3138;52.550;13.148;2022-09-27T05:02:46;11.20;99.90
6210;DHT22;3138;52.550;13.148;2022-09-27T05:05:14;11.20;99.90
6210;DHT22;3138;52.550;13.148;2022-09-27T05:07:41;11.10;99.90
6210;DHT22;3138;52.550;13.148;2022-09-27T05:10:08;11.20;99.90
6210;DHT22;3138;52.550;13.148;2022-09-27T05:12:35;11.10;99.90
6210;DHT22;3138;52.550;13.148;2022-09-27T05:15:04;11.20;99.90
6210;DHT22;3138;52.550;13.148;2022-09-27T05:17:31;11.10;99.90
6210;DHT22;3138;52.550;13.148;2022-09-27T05:19:58;11.10;99.90
6210;DHT22;3138;52.550;13.148;2022-09-27T05:22:25;11.00;99.90
6210;DHT22;3138;52.550;13.148;2022-09-27T05:24:52;11.00;99.90
6210;DHT22;3138;52.550;13.148;2022-09-27T05:27:18;11.10;99.90
6210;DHT22;3138;52.550;13.148;2022-09-27T05:29:45;11.10;99.90
6210;DHT22;3138;52.550;13.148;2022-09-27T05:32:14;11.10;99.90
6210;DHT22;3138;52.550;13.148;2022-09-27T05:34:41;11.00;99.90
6210;DHT22;3138;52.550;13.148;2022-09-27T05:37:08;11.00;99.90
6210;DHT22;3138;52.550;13.148;2022-09-27T05:39:35;11.10;99.90
6210;DHT22;3138;52.550;13.148;2022-09-27T05:42:02;11.00;99.90
6210;DHT22;3138;52.550;13.148;2022-09-27T05:44:31;11.10;99.90
6210;DHT22;3138;52.550;13.148;2022-09-27T05:47:00;11.10;99.90
6210;DHT22;3138;52.550;13.148;2022-09-27T05:49:30;11.10;99.90
6210;DHT22;3138;52.550;13.148;2022-09-27T05:51:57;11.10;99.90
6210;DHT22;3138;52.550;13.148;2022-09-27T05:54:24;11.10;99.90
6210;DHT22;3138;52.550;13.148;2022-09-27T05:56:53;11.20;99.90
6210;DHT22;3138;52.550;13.148;2022-09-27T05:59:22;11.20;99.90
6210;DHT22;3138;52.550;13.148;2022-09-27T06:01:49;11.20;99.90
6210;DHT22;3138;52.550;13.148;2022-09-27T06:04:16;11.20;99.90
6210;DHT22;3138;52.550;13.148;2022-09-27T06:06:44;11.20;99.90
6210;DHT22;3138;52.550;13.148;2022-09-27T06:09:12;11.20;99.90
6210;DHT22;3138;52.550;13.148;2022-09-27T06:11:39;11.20;99.90
6210;DHT22;3138;52.550;13.148;2022-09-27T06:14:06;11.20;99.90
6210;DHT22;3138;52.550;13.148;2022-09-27T06:16:33;11.30;99.90
6210;DHT22;3138;52.550;13.148;2022-09-27T06:19:00;11.30;99.90
6210;DHT22;3138;52.550;13.148;2022-09-27T06:21:27;11.30;99.90
6210;DHT22;3138;52.550;13.148;2022-09-27T06:23:56;11.30;99.90
6210;DHT22;3138;52.550;13.148;2022-09-27T06:26:24;11.40;99.90
6210;DHT22;3138;52.550;13.148;2022-09-27T06:28:51;11.40;99.90
6210;DHT22;3138;52.550;13.148;2022-09-27T06:31:19;11.50;99.90
6210;DHT22;3138;52.550;13.148;2022-09-27T06:33:46;11.40;99.90
6210;DHT22;3138;52.550;13.148;2022-09-27T06:36:13;11.40;99.90
6210;DHT22;3138;52.550;13.148;2022-09-27T06:38:40;11.40;99.90
6210;DHT22;3138;52.550;13.148;2022-09-27T06:41:08;11.40;99.90
6210;DHT22;3138;52.550;13.148;2022-09-27T06:43:35;11.40;99.90
6210;DHT22;3138;52.550;13.148;2022-09-27T06:46:02;11.30;99.90
6210;DHT22;3138;52.550;13.148;2022-09-27T06:48:30;11.30;99.90
6210;DHT22;3138;52.550;13.148;2022-09-27T06:50:58;11.30;99.90
6210;DHT22;3138;52.550;13.148;2022-09-27T06:53:25;11.30;99.90
6210;DHT22;3138;52.550;13.148;2022-09-27T06:55:56;11.30;99.90
6210;DHT22;3138;52.550;13.148;2022-09-27T06:58:26;11.30;99.90
6210;DHT22;3138;52.550;13.148;2022-09-27T07:01:10;11.30;99.90
6210;DHT22;3138;52.550;13.148;2022-09-27T07:03:37;11.40;99.90
6210;DHT22;3138;52.550;13.148;2022-09-27T07:06:16;11.40;99.90
6210;DHT22;3138;52.550;13.148;2022-09-27T07:08:49;11.50;99.90
6210;DHT22;3138;52.550;13.148;2022-09-27T07:11:16;11.50;99.90
6210;DHT22;3138;52.550;13.148;2022-09-27T07:13:45;11.60;99.90
6210;DHT22;3138;52.550;13.148;2022-09-27T07:16:12;11.60;99.90
6210;DHT22;3138;52.550;13.148;2022-09-27T07:18:40;11.70;99.90
6210;DHT22;3138;52.550;13.148;2022-09-27T07:21:07;11.70;99.90
6210;DHT22;3138;52.550;13.148;2022-09-27T07:23:34;11.90;99.90
6210;DHT22;3138;52.550;13.148;2022-09-27T07:26:02;12.00;99.90
6210;DHT22;3138;52.550;13.148;2022-09-27T07:28:31;12.00;99.90
6210;DHT22;3138;52.550;13.148;2022-09-27T07:31:00;11.90;99.90
6210;DHT22;3138;52.550;13.148;2022-09-27T07:33:27;12.10;99.90
6210;DHT22;3138;52.550;13.148;2022-09-27T07:35:54;12.10;99.90
6210;DHT22;3138;52.550;13.148;2022-09-27T07:38:21;12.10;99.90
6210;DHT22;3138;52.550;13.148;2022-09-27T07:40:48;12.10;99.90
6210;DHT22;3138;52.550;13.148;2022-09-27T07:43:15;12.10;99.90
6210;DHT22;3138;52.550;13.148;2022-09-27T07:45:42;12.10;99.90
6210;DHT22;3138;52.550;13.148;2022-09-27T07:48:13;12.10;99.90
6210;DHT22;3138;52.550;13.148;2022-09-27T07:50:40;12.10;99.90
6210;DHT22;3138;52.550;13.148;2022-09-27T07:53:06;12.10;99.90
6210;DHT22;3138;52.550;13.148;2022-09-27T07:55:37;12.00;99.90
6210;DHT22;3138;52.550;13.148;2022-09-27T07:58:05;12.10;99.90
6210;DHT22;3138;52.550;13.148;2022-09-27T08:00:33;12.20;99.90
6210;DHT22;3138;52.550;13.148;2022-09-27T08:03:03;12.40;99.90
6210;DHT22;3138;52.550;13.148;2022-09-27T08:05:33;12.40;99.90
6210;DHT22;3138;52.550;13.148;2022-09-27T08:08:00;12.40;99.90
6210;DHT22;3138;52.550;13.148;2022-09-27T08:10:28;12.50;99.90
6210;DHT22;3138;52.550;13.148;2022-09-27T08:12:56;12.40;99.90
6210;DHT22;3138;52.550;13.148;2022-09-27T08:15:22;12.40;99.90
6210;DHT22;3138;52.550;13.148;2022-09-27T08:17:49;12.30;99.90
6210;DHT22;3138;52.550;13.148;2022-09-27T08:20:16;12.40;99.90
6210;DHT22;3138;52.550;13.148;2022-09-27T08:22:44;12.50;99.90
6210;DHT22;3138;52.550;13.148;2022-09-27T08:25:11;12.50;99.90
6210;DHT22;3138;52.550;13.148;2022-09-27T08:27:38;12.40;99.90
6210;DHT22;3138;52.550;13.148;2022-09-27T08:30:06;12.40;99.90
6210;DHT22;3138;52.550;13.148;2022-09-27T08:32:33;12.50;99.90
6210;DHT22;3138;52.550;13.148;2022-09-27T08:35:00;12.50;99.90
6210;DHT22;3138;52.550;13.148;2022-09-27T08:37:27;12.60;99.90
6210;DHT22;3138;52.550;13.148;2022-09-27T08:39:55;12.60;99.90
6210;DHT22;3138;52.550;13.148;2022-09-27T08:42:35;12.60;99.90
6210;DHT22;3138;52.550;13.148;2022-09-27T08:45:09;12.60;99.90
6210;DHT22;3138;52.550;13.148;2022-09-27T08:47:40;12.60;99.90
6210;DHT22;3138;52.550;13.148;2022-09-27T08:50:22;12.60;99.90
6210;DHT22;3138;52.550;13.148;2022-09-27T08:52:54;12.70;99.90
6210;DHT22;3138;52.550;13.148;2022-09-27T08:55:29;12.70;99.90
6210;DHT22;3138;52.550;13.148;2022-09-27T08:57:57;12.90;99.90
6210;DHT22;3138;52.550;13.148;2022-09-27T09:00:27;12.90;99.90
6210;DHT22;3138;52.550;13.148;2022-09-27T09:02:54;12.90;99.90
6210;DHT22;3138;52.550;13.148;2022-09-27T09:05:26;13.00;99.90
6210;DHT22;3138;52.550;13.148;2022-09-27T09:08:03;13.00;99.90
6210;DHT22;3138;52.550;13.148;2022-09-27T09:10:48;13.20;99.90
6210;DHT22;3138;52.550;13.148;2022-09-27T09:13:50;13.10;99.90
6210;DHT22;3138;52.550;13.148;2022-09-27T09:16:26;13.30;99.90
6210;DHT22;3138;52.550;13.148;2022-09-27T09:19:07;13.40;99.90
6210;DHT22;3138;52.550;13.148;2022-09-27T09:21:44;13.50;99.90
6210;DHT22;3138;52.550;13.148;2022-09-27T09:24:22;13.60;99.90
6210;DHT22;3138;52.550;13.148;2022-09-27T09:26:58;13.70;99.90
6210;DHT22;3138;52.550;13.148;2022-09-27T09:29:39;13.70;99.90
6210;DHT22;3138;52.550;13.148;2022-09-27T09:32:19;13.70;99.90
6210;DHT22;3138;52.550;13.148;2022-09-27T09:34:52;13.90;99.90
6210;DHT22;3138;52.550;13.148;2022-09-27T09:37:31;13.90;99.90
6210;DHT22;3138;52.550;13.148;2022-09-27T09:40:04;13.80;99.90
6210;DHT22;3138;52.550;13.148;2022-09-27T09:42:37;13.90;99.90
6210;DHT22;3138;52.550;13.148;2022-09-27T09:45:12;13.80;99.90
6210;DHT22;3138;52.550;13.148;2022-09-27T09:47:44;13.80;99.90
6210;DHT22;3138;52.550;13.148;2022-09-27T09:50:17;14.00;99.90
6210;DHT22;3138;52.550;13.148;2022-09-27T09:52:47;14.20;99.90
6210;DHT22;3138;52.550;13.148;2022-09-27T09:55:19;14.40;99.90
6210;DHT22;3138;52.550;13.148;2022-09-27T09:57:55;14.40;99.90
6210;DHT22;3138;52.550;13.148;2022-09-27T10:00:25;14.30;99.90
6210;DHT22;3138;52.550;13.148;2022-09-27T10:02:53;14.00;99.90
6210;DHT22;3138;52.550;13.148;2022-09-27T10:05:23;14.00;99.90
6210;DHT22;3138;52.550;13.148;2022-09-27T10:07:52;13.80;99.90
6210;DHT22;3138;52.550;13.148;2022-09-27T10:10:20;13.60;99.90
6210;DHT22;3138;52.550;13.148;2022-09-27T10:12:49;13.70;99.90
6210;DHT22;3138;52.550;13.148;2022-09-27T10:15:18;13.60;99.90
6210;DHT22;3138;52.550;13.148;2022-09-27T10:17:49;13.90;99.90
6210;DHT22;3138;52.550;13.148;2022-09-27T10:20:25;14.40;99.90
6210;DHT22;3138;52.550;13.148;2022-09-27T10:22:53;14.90;99.90
6210;DHT22;3138;52.550;13.148;2022-09-27T10:25:21;15.10;99.90
6210;DHT22;3138;52.550;13.148;2022-09-27T10:27:51;15.20;99.90
6210;DHT22;3138;52.550;13.148;2022-09-27T10:30:25;15.10;99.90
6210;DHT22;3138;52.550;13.148;2022-09-27T10:32:55;14.80;99.90
6210;DHT22;3138;52.550;13.148;2022-09-27T10:35:34;14.70;99.90
6210;DHT22;3138;52.550;13.148;2022-09-27T10:38:21;14.60;99.90
6210;DHT22;3138;52.550;13.148;2022-09-27T10:40:48;14.50;99.90
6210;DHT22;3138;52.550;13.148;2022-09-27T10:43:28;14.50;99.90
6210;DHT22;3138;52.550;13.148;2022-09-27T10:46:06;14.70;99.90
6210;DHT22;3138;52.550;13.148;2022-09-27T10:48:35;14.80;99.90
6210;DHT22;3138;52.550;13.148;2022-09-27T10:51:05;15.00;99.90
6210;DHT22;3138;52.550;13.148;2022-09-27T10:53:34;15.10;99.90
6210;DHT22;3138;52.550;13.148;2022-09-27T10:56:02;15.60;99.90
6210;DHT22;3138;52.550;13.148;2022-09-27T10:58:32;16.00;99.90
6210;DHT22;3138;52.550;13.148;2022-09-27T11:01:02;16.10;99.90
6210;DHT22;3138;52.550;13.148;2022-09-27T11:03:30;16.30;99.90
6210;DHT22;3138;52.550;13.148;2022-09-27T11:05:58;16.10;99.90
6210;DHT22;3138;52.550;13.148;2022-09-27T11:08:30;15.90;99.90
6210;DHT22;3138;52.550;13.148;2022-09-27T11:11:15;15.60;99.90
6210;DHT22;3138;52.550;13.148;2022-09-27T11:13:58;15.50;99.90
6210;DHT22;3138;52.550;13.148;2022-09-27T11:16:44;15.60;99.90
6210;DHT22;3138;52.550;13.148;2022-09-27T11:19:27;15.40;99.90
6210;DHT22;3138;52.550;13.148;2022-09-27T11:22:02;15.40;99.90
6210;DHT22;3138;52.550;13.148;2022-09-27T11:24:43;15.00;99.90
6210;DHT22;3138;52.550;13.148;2022-09-27T11:27:21;13.70;99.90
6210;DHT22;3138;52.550;13.148;2022-09-27T11:30:03;13.00;99.90
6210;DHT22;3138;52.550;13.148;2022-09-27T11:32:56;12.90;99.90
6210;DHT22;3138;52.550;13.148;2022-09-27T11:35:43;12.30;99.90
6210;DHT22;3138;52.550;13.148;2022-09-27T11:38:24;11.90;99.90
6210;DHT22;3138;52.550;13.148;2022-09-27T11:41:13;11.70;99.90
6210;DHT22;3138;52.550;13.148;2022-09-27T11:44:03;11.60;99.90
6210;DHT22;3138;52.550;13.148;2022-09-27T11:46:34;11.50;99.90
6210;DHT22;3138;52.550;13.148;2022-09-27T11:49:15;11.50;99.90
6210;DHT22;3138;52.550;13.148;2022-09-27T11:51:55;11.60;99.90
6210;DHT22;3138;52.550;13.148;2022-09-27T11:54:37;11.70;99.90
6210;DHT22;3138;52.550;13.148;2022-09-27T11:57:09;12.10;99.90
6210;DHT22;3138;52.550;13.148;2022-09-27T12:00:01;12.50;99.90
6210;DHT22;3138;52.550;13.148;2022-09-27T12:02:50;12.80;99.90
6210;DHT22;3138;52.550;13.148;2022-09-27T12:05:31;12.60;99.90
6210;DHT22;3138;52.550;13.148;2022-09-27T12:08:14;12.40;99.90
6210;DHT22;3138;52.550;13.148;2022-09-27T12:10:47;12.20;99.90
6210;DHT22;3138;52.550;13.148;2022-09-27T12:13:27;12.20;99.90
6210;DHT22;3138;52.550;13.148;2022-09-27T12:15:55;12.30;99.90
6210;DHT22;3138;52.550;13.148;2022-09-27T12:18:27;12.30;99.90
6210;DHT22;3138;52.550;13.148;2022-09-27T12:20:58;12.50;99.90
6210;DHT22;3138;52.550;13.148;2022-09-27T12:23:32;12.60;99.90
6210;DHT22;3138;52.550;13.148;2022-09-27T12:26:04;12.70;99.90
6210;DHT22;3138;52.550;13.148;2022-09-27T12:28:36;12.80;99.90
6210;DHT22;3138;52.550;13.148;2022-09-27T12:31:14;12.90;99.90
6210;DHT22;3138;52.550;13.148;2022-09-27T12:33:48;12.80;99.90
6210;DHT22;3138;52.550;13.148;2022-09-27T12:36:19;12.90;99.90
6210;DHT22;3138;52.550;13.148;2022-09-27T12:38:52;12.70;99.90
6210;DHT22;3138;52.550;13.148;2022-09-27T12:41:22;12.80;99.90
6210;DHT22;3138;52.550;13.148;2022-09-27T12:43:49;12.90;99.90
6210;DHT22;3138;52.550;13.148;2022-09-27T12:46:25;13.00;99.90
6210;DHT22;3138;52.550;13.148;2022-09-27T12:49:02;13.00;99.90
6210;DHT22;3138;52.550;13.148;2022-09-27T12:51:35;13.20;99.90
6210;DHT22;3138;52.550;13.148;2022-09-27T12:54:22;13.40;99.90
6210;DHT22;3138;52.550;13.148;2022-09-27T12:56:58;14.00;99.90
6210;DHT22;3138;52.550;13.148;2022-09-27T12:59:43;14.00;99.90
6210;DHT22;3138;52.550;13.148;2022-09-27T13:05:31;13.40;99.90
6210;DHT22;3138;52.550;13.148;2022-09-27T13:08:15;13.20;99.90
6210;DHT22;3138;52.550;13.148;2022-09-27T13:10:52;13.00;99.90
6210;DHT22;3138;52.550;13.148;2022-09-27T13:13:23;13.10;99.90
6210;DHT22;3138;52.550;13.148;2022-09-27T13:15:55;13.40;99.90
6210;DHT22;3138;52.550;13.148;2022-09-27T13:18:31;13.50;99.90
6210;DHT22;3138;52.550;13.148;2022-09-27T13:21:56;13.40;99.90
6210;DHT22;3138;52.550;13.148;2022-09-27T13:24:44;13.50;99.90
6210;DHT22;3138;52.550;13.148;2022-09-27T13:27:37;13.30;99.90
6210;DHT22;3138;52.550;13.148;2022-09-27T13:33:30;13.20;99.90
6210;DHT22;3138;52.550;13.148;2022-09-27T13:36:24;13.20;99.90
6210;DHT22;3138;52.550;13.148;2022-09-27T13:39:16;13.40;99.90
6210;DHT22;3138;52.550;13.148;2022-09-27T13:42:11;13.20;99.90
6210;DHT22;3138;52.550;13.148;2022-09-27T13:44:54;13.20;99.90
6210;DHT22;3138;52.550;13.148;2022-09-27T13:47:28;13.30;99.90
6210;DHT22;3138;52.550;13.148;2022-09-27T13:50:11;13.30;99.90
6210;DHT22;3138;52.550;13.148;2022-09-27T13:52:42;13.20;99.90
6210;DHT22;3138;52.550;13.148;2022-09-27T13:55:38;12.80;99.90
6210;DHT22;3138;52.550;13.148;2022-09-27T13:58:14;12.70;99.90
6210;DHT22;3138;52.550;13.148;2022-09-27T14:00:43;12.70;99.90
6210;DHT22;3138;52.550;13.148;2022-09-27T14:03:25;12.70;99.90
6210;DHT22;3138;52.550;13.148;2022-09-27T14:06:16;12.60;99.90
6210;DHT22;3138;52.550;13.148;2022-09-27T14:08:47;12.80;99.90
6210;DHT22;3138;52.550;13.148;2022-09-27T14:11:19;13.00;99.90
6210;DHT22;3138;52.550;13.148;2022-09-27T14:13:47;13.30;99.90
6210;DHT22;3138;52.550;13.148;2022-09-27T14:16:16;13.20;99.90
6210;DHT22;3138;52.550;13.148;2022-09-27T14:18:47;13.20;99.90
6210;DHT22;3138;52.550;13.148;2022-09-27T14:21:25;13.00;99.90
6210;DHT22;3138;52.550;13.148;2022-09-27T14:23:53;12.90;99.90
6210;DHT22;3138;52.550;13.148;2022-09-27T14:26:25;13.00;99.90
6210;DHT22;3138;52.550;13.148;2022-09-27T14:28:52;13.00;99.90
6210;DHT22;3138;52.550;13.148;2022-09-27T14:31:22;13.10;99.90
6210;DHT22;3138;52.550;13.148;2022-09-27T14:33:50;12.90;99.90
6210;DHT22;3138;52.550;13.148;2022-09-27T14:36:24;12.80;99.90
6210;DHT22;3138;52.550;13.148;2022-09-27T14:39:13;12.70;99.90
6210;DHT22;3138;52.550;13.148;2022-09-27T14:41:42;12.90;99.90
6210;DHT22;3138;52.550;13.148;2022-09-27T14:44:14;13.10;99.90
6210;DHT22;3138;52.550;13.148;2022-09-27T14:46:42;13.00;99.90
6210;DHT22;3138;52.550;13.148;2022-09-27T14:49:18;13.00;99.90
6210;DHT22;3138;52.550;13.148;2022-09-27T14:51:50;12.80;99.90
6210;DHT22;3138;52.550;13.148;2022-09-27T14:54:22;12.80;99.90
6210;DHT22;3138;52.550;13.148;2022-09-27T14:56:52;12.60;99.90
6210;DHT22;3138;52.550;13.148;2022-09-27T14:59:24;12.60;99.90
6210;DHT22;3138;52.550;13.148;2022-09-27T15:01:56;12.60;99.90
6210;DHT22;3138;52.550;13.148;2022-09-27T15:04:26;12.70;99.90
6210;DHT22;3138;52.550;13.148;2022-09-27T15:06:55;12.60;99.90
6210;DHT22;3138;52.550;13.148;2022-09-27T15:09:23;12.50;99.90
6210;DHT22;3138;52.550;13.148;2022-09-27T15:11:56;12.50;99.90
6210;DHT22;3138;52.550;13.148;2022-09-27T15:14:26;12.50;99.90
6210;DHT22;3138;52.550;13.148;2022-09-27T15:16:57;12.50;99.90
6210;DHT22;3138;52.550;13.148;2022-09-27T15:19:30;12.50;99.90
6210;DHT22;3138;52.550;13.148;2022-09-27T15:22:22;12.50;99.90
6210;DHT22;3138;52.550;13.148;2022-09-27T15:25:04;12.60;99.90
6210;DHT22;3138;52.550;13.148;2022-09-27T15:27:33;12.50;99.90
6210;DHT22;3138;52.550;13.148;2022-09-27T15:29:59;12.50;99.90
6210;DHT22;3138;52.550;13.148;2022-09-27T15:32:28;12.50;99.90
6210;DHT22;3138;52.550;13.148;2022-09-27T15:34:56;12.50;99.90
6210;DHT22;3138;52.550;13.148;2022-09-27T15:37:25;12.40;99.90
6210;DHT22;3138;52.550;13.148;2022-09-27T15:39:52;12.40;99.90
6210;DHT22;3138;52.550;13.148;2022-09-27T15:42:19;11.90;99.90
6210;DHT22;3138;52.550;13.148;2022-09-27T15:44:49;11.60;99.90
6210;DHT22;3138;52.550;13.148;2022-09-27T15:47:46;11.40;99.90
6210;DHT22;3138;52.550;13.148;2022-09-27T15:50:35;11.40;99.90
6210;DHT22;3138;52.550;13.148;2022-09-27T15:53:03;11.10;99.90
6210;DHT22;3138;52.550;13.148;2022-09-27T15:55:33;11.10;99.90
6210;DHT22;3138;52.550;13.148;2022-09-27T15:58:03;11.10;99.90
6210;DHT22;3138;52.550;13.148;2022-09-27T16:00:31;11.20;99.90
6210;DHT22;3138;52.550;13.148;2022-09-27T16:02:59;11.10;99.90
6210;DHT22;3138;52.550;13.148;2022-09-27T16:05:26;11.00;99.90
6210;DHT22;3138;52.550;13.148;2022-09-27T16:07:54;11.00;99.90
6210;DHT22;3138;52.550;13.148;2022-09-27T16:10:26;11.00;99.90
6210;DHT22;3138;52.550;13.148;2022-09-27T16:12:54;10.90;99.90
6210;DHT22;3138;52.550;13.148;2022-09-27T16:15:21;10.90;99.90
6210;DHT22;3138;52.550;13.148;2022-09-27T16:17:49;10.90;99.90
6210;DHT22;3138;52.550;13.148;2022-09-27T16:20:18;11.00;99.90
6210;DHT22;3138;52.550;13.148;2022-09-27T16:22:46;10.90;99.90
6210;DHT22;3138;52.550;13.148;2022-09-27T16:25:12;10.80;99.90